sensor_id;sensor_type;location;lat;lon;timestamp;P1;durP1;ratioP1;P2;durP2;ratioP2
6348;SDS011;3207;42.648;23.406;2022-08-16T00:01:44;5.88;;;5.38;;
6348;SDS011;3207;42.648;23.406;2022-08-16T00:04:11;6.07;;;5.43;;
6348;SDS011;3207;42.648;23.406;2022-08-16T00:06:38;5.97;;;4.82;;
6348;SDS011;3207;42.648;23.406;2022-08-16T00:09:05;5.97;;;4.95;;
6348;SDS011;3207;42.648;23.406;2022-08-16T00:11:34;5.15;;;4.68;;
6348;SDS011;3207;42.648;23.406;2022-08-16T00:14:02;6.25;;;5.70;;
6348;SDS011;3207;42.648;23.406;2022-08-16T00:16:31;6.05;;;5.47;;
6348;SDS011;3207;42.648;23.406;2022-08-16T00:18:57;6.50;;;5.45;;
6348;SDS011;3207;42.648;23.406;2022-08-16T00:21:24;5.57;;;5.15;;
6348;SDS011;3207;42.648;23.406;2022-08-16T00:23:51;5.28;;;4.78;;
6348;SDS011;3207;42.648;23.406;2022-08-16T00:26:18;5.20;;;4.80;;
6348;SDS011;3207;42.648;23.406;2022-08-16T00:28:46;6.25;;;5.35;;
6348;SDS011;3207;42.648;23.406;2022-08-16T00:31:13;6.00;;;4.80;;
6348;SDS011;3207;42.648;23.406;2022-08-16T00:33:39;5.40;;;4.85;;
6348;SDS011;3207;42.648;23.406;2022-08-16T00:36:06;6.93;;;6.22;;
6348;SDS011;3207;42.648;23.406;2022-08-16T00:38:33;5.80;;;5.20;;
6348;SDS011;3207;42.648;23.406;2022-08-16T00:40:59;6.72;;;4.97;;
6348;SDS011;3207;42.648;23.406;2022-08-16T00:43:28;6.75;;;4.80;;
6348;SDS011;3207;42.648;23.406;2022-08-16T00:46:00;5.82;;;5.22;;
6348;SDS011;3207;42.648;23.406;2022-08-16T00:48:34;6.72;;;5.57;;
6348;SDS011;3207;42.648;23.406;2022-08-16T00:51:02;6.35;;;5.05;;
6348;SDS011;3207;42.648;23.406;2022-08-16T00:53:29;6.63;;;4.85;;
6348;SDS011;3207;42.648;23.406;2022-08-16T00:55:57;5.10;;;4.70;;
6348;SDS011;3207;42.648;23.406;2022-08-16T00:58:28;7.20;;;5.50;;
6348;SDS011;3207;42.648;23.406;2022-08-16T01:00:58;6.28;;;5.25;;
6348;SDS011;3207;42.648;23.406;2022-08-16T01:03:25;6.15;;;5.40;;
6348;SDS011;3207;42.648;23.406;2022-08-16T01:05:53;6.00;;;5.40;;
6348;SDS011;3207;42.648;23.406;2022-08-16T01:08:21;5.50;;;4.97;;
6348;SDS011;3207;42.648;23.406;2022-08-16T01:10:49;5.85;;;4.90;;
6348;SDS011;3207;42.648;23.406;2022-08-16T01:13:18;6.50;;;5.28;;
6348;SDS011;3207;42.648;23.406;2022-08-16T01:15:53;6.97;;;5.45;;
6348;SDS011;3207;42.648;23.406;2022-08-16T01:18:23;6.25;;;4.90;;
6348;SDS011;3207;42.648;23.406;2022-08-16T01:20:54;5.50;;;5.00;;
6348;SDS011;3207;42.648;23.406;2022-08-16T01:23:26;5.60;;;5.00;;
6348;SDS011;3207;42.648;23.406;2022-08-16T01:25:58;6.47;;;5.35;;
6348;SDS011;3207;42.648;23.406;2022-08-16T01:28:25;4.80;;;4.22;;
6348;SDS011;3207;42.648;23.406;2022-08-16T01:30:54;5.70;;;5.20;;
6348;SDS011;3207;42.648;23.406;2022-08-16T01:33:22;5.70;;;5.20;;
6348;SDS011;3207;42.648;23.406;2022-08-16T01:35:50;7.20;;;5.22;;
6348;SDS011;3207;42.648;23.406;2022-08-16T01:38:23;6.88;;;5.00;;
6348;SDS011;3207;42.648;23.406;2022-08-16T01:40:52;6.03;;;5.43;;
6348;SDS011;3207;42.648;23.406;2022-08-16T01:43:22;5.10;;;4.65;;
6348;SDS011;3207;42.648;23.406;2022-08-16T01:45:52;7.68;;;6.15;;
6348;SDS011;3207;42.648;23.406;2022-08-16T01:48:20;6.15;;;5.55;;
6348;SDS011;3207;42.648;23.406;2022-08-16T01:50:49;7.55;;;6.53;;
6348;SDS011;3207;42.648;23.406;2022-08-16T01:53:17;9.02;;;6.22;;
6348;SDS011;3207;42.648;23.406;2022-08-16T01:55:44;9.30;;;6.20;;
6348;SDS011;3207;42.648;23.406;2022-08-16T01:58:11;6.13;;;5.53;;
6348;SDS011;3207;42.648;23.406;2022-08-16T02:00:40;9.43;;;6.30;;
6348;SDS011;3207;42.648;23.406;2022-08-16T02:03:07;8.35;;;6.47;;
6348;SDS011;3207;42.648;23.406;2022-08-16T02:05:34;9.00;;;6.75;;
6348;SDS011;3207;42.648;23.406;2022-08-16T02:08:01;9.77;;;7.38;;
6348;SDS011;3207;42.648;23.406;2022-08-16T02:10:29;8.70;;;7.00;;
6348;SDS011;3207;42.648;23.406;2022-08-16T02:12:56;10.35;;;6.80;;
6348;SDS011;3207;42.648;23.406;2022-08-16T02:15:24;11.18;;;7.60;;
6348;SDS011;3207;42.648;23.406;2022-08-16T02:17:54;11.07;;;7.45;;
6348;SDS011;3207;42.648;23.406;2022-08-16T02:20:22;8.60;;;6.97;;
6348;SDS011;3207;42.648;23.406;2022-08-16T02:22:49;12.00;;;6.72;;
6348;SDS011;3207;42.648;23.406;2022-08-16T02:25:16;11.52;;;7.43;;
6348;SDS011;3207;42.648;23.406;2022-08-16T02:27:43;7.97;;;7.18;;
6348;SDS011;3207;42.648;23.406;2022-08-16T02:30:12;8.68;;;7.63;;
6348;SDS011;3207;42.648;23.406;2022-08-16T02:32:41;8.80;;;7.00;;
6348;SDS011;3207;42.648;23.406;2022-08-16T02:35:10;11.73;;;7.93;;
6348;SDS011;3207;42.648;23.406;2022-08-16T02:37:37;12.35;;;7.65;;
6348;SDS011;3207;42.648;23.406;2022-08-16T02:40:05;10.23;;;7.05;;
6348;SDS011;3207;42.648;23.406;2022-08-16T02:42:32;9.25;;;7.45;;
6348;SDS011;3207;42.648;23.406;2022-08-16T02:44:59;7.78;;;7.03;;
6348;SDS011;3207;42.648;23.406;2022-08-16T02:47:29;10.45;;;7.25;;
6348;SDS011;3207;42.648;23.406;2022-08-16T02:49:56;6.07;;;5.50;;
6348;SDS011;3207;42.648;23.406;2022-08-16T02:52:24;10.77;;;6.85;;
6348;SDS011;3207;42.648;23.406;2022-08-16T02:54:51;7.45;;;6.75;;
6348;SDS011;3207;42.648;23.406;2022-08-16T02:57:17;8.05;;;7.25;;
6348;SDS011;3207;42.648;23.406;2022-08-16T02:59:46;7.90;;;6.63;;
6348;SDS011;3207;42.648;23.406;2022-08-16T03:02:14;8.52;;;5.75;;
6348;SDS011;3207;42.648;23.406;2022-08-16T03:04:40;6.07;;;5.03;;
6348;SDS011;3207;42.648;23.406;2022-08-16T03:07:07;6.45;;;5.45;;
6348;SDS011;3207;42.648;23.406;2022-08-16T03:09:37;7.80;;;5.72;;
6348;SDS011;3207;42.648;23.406;2022-08-16T03:12:04;4.75;;;4.35;;
6348;SDS011;3207;42.648;23.406;2022-08-16T03:14:31;5.32;;;4.82;;
6348;SDS011;3207;42.648;23.406;2022-08-16T03:16:59;6.03;;;5.00;;
6348;SDS011;3207;42.648;23.406;2022-08-16T03:19:26;5.57;;;5.07;;
6348;SDS011;3207;42.648;23.406;2022-08-16T03:21:54;5.10;;;4.70;;
6348;SDS011;3207;42.648;23.406;2022-08-16T03:24:20;5.30;;;4.80;;
6348;SDS011;3207;42.648;23.406;2022-08-16T03:26:48;7.30;;;6.07;;
6348;SDS011;3207;42.648;23.406;2022-08-16T03:29:16;6.40;;;5.18;;
6348;SDS011;3207;42.648;23.406;2022-08-16T03:31:42;6.35;;;5.75;;
6348;SDS011;3207;42.648;23.406;2022-08-16T03:34:09;5.95;;;5.32;;
6348;SDS011;3207;42.648;23.406;2022-08-16T03:36:36;6.25;;;5.57;;
6348;SDS011;3207;42.648;23.406;2022-08-16T03:39:03;6.15;;;5.55;;
6348;SDS011;3207;42.648;23.406;2022-08-16T03:41:29;6.15;;;5.18;;
6348;SDS011;3207;42.648;23.406;2022-08-16T03:43:58;5.97;;;4.75;;
6348;SDS011;3207;42.648;23.406;2022-08-16T03:46:24;12.95;;;5.55;;
6348;SDS011;3207;42.648;23.406;2022-08-16T03:48:52;9.45;;;4.93;;
6348;SDS011;3207;42.648;23.406;2022-08-16T03:51:19;8.50;;;5.50;;
6348;SDS011;3207;42.648;23.406;2022-08-16T03:53:46;5.63;;;5.00;;
6348;SDS011;3207;42.648;23.406;2022-08-16T03:56:13;5.97;;;5.05;;
6348;SDS011;3207;42.648;23.406;2022-08-16T03:58:47;6.25;;;5.57;;
6348;SDS011;3207;42.648;23.406;2022-08-16T04:01:16;8.27;;;5.53;;
6348;SDS011;3207;42.648;23.406;2022-08-16T04:03:42;6.40;;;5.80;;
6348;SDS011;3207;42.648;23.406;2022-08-16T04:06:09;8.40;;;5.68;;
6348;SDS011;3207;42.648;23.406;2022-08-16T04:08:36;9.48;;;6.25;;
6348;SDS011;3207;42.648;23.406;2022-08-16T04:11:03;7.35;;;6.15;;
6348;SDS011;3207;42.648;23.406;2022-08-16T04:13:30;8.70;;;6.32;;
6348;SDS011;3207;42.648;23.406;2022-08-16T04:15:56;9.55;;;6.70;;
6348;SDS011;3207;42.648;23.406;2022-08-16T04:18:24;7.85;;;6.53;;
6348;SDS011;3207;42.648;23.406;2022-08-16T04:20:51;8.85;;;6.30;;
6348;SDS011;3207;42.648;23.406;2022-08-16T04:23:18;7.53;;;6.65;;
6348;SDS011;3207;42.648;23.406;2022-08-16T04:25:45;7.43;;;6.35;;
6348;SDS011;3207;42.648;23.406;2022-08-16T04:28:12;8.15;;;6.75;;
6348;SDS011;3207;42.648;23.406;2022-08-16T04:30:40;8.43;;;7.07;;
6348;SDS011;3207;42.648;23.406;2022-08-16T04:33:06;8.85;;;7.30;;
6348;SDS011;3207;42.648;23.406;2022-08-16T04:35:35;8.50;;;7.20;;
6348;SDS011;3207;42.648;23.406;2022-08-16T04:38:02;6.88;;;6.18;;
6348;SDS011;3207;42.648;23.406;2022-08-16T04:40:30;7.90;;;5.18;;
6348;SDS011;3207;42.648;23.406;2022-08-16T04:42:57;7.50;;;6.55;;
6348;SDS011;3207;42.648;23.406;2022-08-16T04:45:25;8.05;;;5.85;;
6348;SDS011;3207;42.648;23.406;2022-08-16T04:47:52;6.97;;;5.63;;
6348;SDS011;3207;42.648;23.406;2022-08-16T04:50:20;8.57;;;6.25;;
6348;SDS011;3207;42.648;23.406;2022-08-16T04:52:50;5.97;;;5.38;;
6348;SDS011;3207;42.648;23.406;2022-08-16T04:55:18;8.52;;;6.05;;
6348;SDS011;3207;42.648;23.406;2022-08-16T04:57:47;8.02;;;5.53;;
6348;SDS011;3207;42.648;23.406;2022-08-16T05:00:17;9.02;;;6.85;;
6348;SDS011;3207;42.648;23.406;2022-08-16T05:02:45;6.65;;;5.72;;
6348;SDS011;3207;42.648;23.406;2022-08-16T05:05:14;12.80;;;4.93;;
6348;SDS011;3207;42.648;23.406;2022-08-16T05:07:41;8.60;;;4.57;;
6348;SDS011;3207;42.648;23.406;2022-08-16T05:10:09;9.38;;;5.15;;
6348;SDS011;3207;42.648;23.406;2022-08-16T05:12:36;6.13;;;4.35;;
6348;SDS011;3207;42.648;23.406;2022-08-16T05:15:04;8.13;;;4.53;;
6348;SDS011;3207;42.648;23.406;2022-08-16T05:17:32;8.43;;;4.72;;
6348;SDS011;3207;42.648;23.406;2022-08-16T05:19:59;9.60;;;4.43;;
6348;SDS011;3207;42.648;23.406;2022-08-16T05:22:26;5.85;;;4.20;;
6348;SDS011;3207;42.648;23.406;2022-08-16T05:24:54;8.00;;;5.28;;
6348;SDS011;3207;42.648;23.406;2022-08-16T05:27:22;6.15;;;4.55;;
6348;SDS011;3207;42.648;23.406;2022-08-16T05:29:48;4.85;;;4.25;;
6348;SDS011;3207;42.648;23.406;2022-08-16T05:32:15;7.22;;;4.78;;
6348;SDS011;3207;42.648;23.406;2022-08-16T05:34:42;5.03;;;4.53;;
6348;SDS011;3207;42.648;23.406;2022-08-16T05:37:09;8.25;;;4.57;;
6348;SDS011;3207;42.648;23.406;2022-08-16T05:39:36;5.15;;;4.15;;
6348;SDS011;3207;42.648;23.406;2022-08-16T05:42:03;6.20;;;3.85;;
6348;SDS011;3207;42.648;23.406;2022-08-16T05:44:31;5.03;;;3.72;;
6348;SDS011;3207;42.648;23.406;2022-08-16T05:46:59;4.28;;;3.25;;
6348;SDS011;3207;42.648;23.406;2022-08-16T05:49:27;4.00;;;3.50;;
6348;SDS011;3207;42.648;23.406;2022-08-16T05:51:55;3.90;;;3.60;;
6348;SDS011;3207;42.648;23.406;2022-08-16T05:54:24;6.85;;;3.30;;
6348;SDS011;3207;42.648;23.406;2022-08-16T05:56:52;4.22;;;3.80;;
6348;SDS011;3207;42.648;23.406;2022-08-16T05:59:20;3.10;;;2.80;;
6348;SDS011;3207;42.648;23.406;2022-08-16T06:01:48;3.90;;;3.60;;
6348;SDS011;3207;42.648;23.406;2022-08-16T06:04:16;5.68;;;3.70;;
6348;SDS011;3207;42.648;23.406;2022-08-16T06:06:44;6.35;;;3.63;;
6348;SDS011;3207;42.648;23.406;2022-08-16T06:09:11;4.60;;;4.10;;
6348;SDS011;3207;42.648;23.406;2022-08-16T06:11:39;4.63;;;4.22;;
6348;SDS011;3207;42.648;23.406;2022-08-16T06:14:06;5.20;;;3.95;;
6348;SDS011;3207;42.648;23.406;2022-08-16T06:16:33;4.47;;;4.07;;
6348;SDS011;3207;42.648;23.406;2022-08-16T06:19:01;4.47;;;4.07;;
6348;SDS011;3207;42.648;23.406;2022-08-16T06:21:28;7.43;;;4.28;;
6348;SDS011;3207;42.648;23.406;2022-08-16T06:23:55;4.75;;;4.15;;
6348;SDS011;3207;42.648;23.406;2022-08-16T06:26:22;5.00;;;4.45;;
6348;SDS011;3207;42.648;23.406;2022-08-16T06:28:49;5.38;;;4.88;;
6348;SDS011;3207;42.648;23.406;2022-08-16T06:31:16;5.97;;;4.63;;
6348;SDS011;3207;42.648;23.406;2022-08-16T06:33:43;6.68;;;4.50;;
6348;SDS011;3207;42.648;23.406;2022-08-16T06:36:11;4.45;;;4.15;;
6348;SDS011;3207;42.648;23.406;2022-08-16T06:38:38;4.68;;;4.28;;
6348;SDS011;3207;42.648;23.406;2022-08-16T06:41:06;5.75;;;4.72;;
6348;SDS011;3207;42.648;23.406;2022-08-16T06:43:34;4.80;;;4.40;;
6348;SDS011;3207;42.648;23.406;2022-08-16T06:46:03;5.30;;;4.82;;
6348;SDS011;3207;42.648;23.406;2022-08-16T06:48:33;5.85;;;4.97;;
6348;SDS011;3207;42.648;23.406;2022-08-16T06:51:01;6.13;;;4.80;;
6348;SDS011;3207;42.648;23.406;2022-08-16T06:53:30;6.43;;;4.80;;
6348;SDS011;3207;42.648;23.406;2022-08-16T06:55:58;4.90;;;4.55;;
6348;SDS011;3207;42.648;23.406;2022-08-16T06:58:30;6.15;;;5.03;;
6348;SDS011;3207;42.648;23.406;2022-08-16T07:00:58;9.05;;;5.38;;
6348;SDS011;3207;42.648;23.406;2022-08-16T07:03:25;5.53;;;4.72;;
6348;SDS011;3207;42.648;23.406;2022-08-16T07:05:52;5.28;;;4.80;;
6348;SDS011;3207;42.648;23.406;2022-08-16T07:08:21;5.20;;;4.75;;
6348;SDS011;3207;42.648;23.406;2022-08-16T07:10:50;5.47;;;4.10;;
6348;SDS011;3207;42.648;23.406;2022-08-16T07:13:17;5.35;;;4.75;;
6348;SDS011;3207;42.648;23.406;2022-08-16T07:15:44;5.30;;;4.80;;
6348;SDS011;3207;42.648;23.406;2022-08-16T07:18:13;6.88;;;4.18;;
6348;SDS011;3207;42.648;23.406;2022-08-16T07:20:41;5.90;;;4.47;;
6348;SDS011;3207;42.648;23.406;2022-08-16T07:23:08;5.03;;;4.53;;
6348;SDS011;3207;42.648;23.406;2022-08-16T07:25:35;4.47;;;4.07;;
6348;SDS011;3207;42.648;23.406;2022-08-16T07:28:03;4.88;;;4.38;;
6348;SDS011;3207;42.648;23.406;2022-08-16T07:30:31;5.05;;;4.50;;
6348;SDS011;3207;42.648;23.406;2022-08-16T07:32:58;4.43;;;4.03;;
6348;SDS011;3207;42.648;23.406;2022-08-16T07:35:26;6.95;;;4.35;;
6348;SDS011;3207;42.648;23.406;2022-08-16T07:37:53;5.65;;;5.15;;
6348;SDS011;3207;42.648;23.406;2022-08-16T07:40:19;5.30;;;4.70;;
6348;SDS011;3207;42.648;23.406;2022-08-16T07:42:47;8.93;;;5.07;;
6348;SDS011;3207;42.648;23.406;2022-08-16T07:45:15;6.88;;;6.25;;
6348;SDS011;3207;42.648;23.406;2022-08-16T07:47:41;6.05;;;5.45;;
6348;SDS011;3207;42.648;23.406;2022-08-16T07:50:10;4.72;;;3.63;;
6348;SDS011;3207;42.648;23.406;2022-08-16T07:52:38;3.60;;;3.05;;
6348;SDS011;3207;42.648;23.406;2022-08-16T07:55:06;3.47;;;3.17;;
6348;SDS011;3207;42.648;23.406;2022-08-16T07:57:35;2.92;;;2.72;;
6348;SDS011;3207;42.648;23.406;2022-08-16T08:00:02;3.10;;;2.85;;
6348;SDS011;3207;42.648;23.406;2022-08-16T08:02:31;6.00;;;3.20;;
6348;SDS011;3207;42.648;23.406;2022-08-16T08:04:58;3.22;;;2.40;;
6348;SDS011;3207;42.648;23.406;2022-08-16T08:07:24;2.90;;;2.70;;
6348;SDS011;3207;42.648;23.406;2022-08-16T08:09:52;3.88;;;2.88;;
6348;SDS011;3207;42.648;23.406;2022-08-16T08:12:19;3.10;;;2.80;;
6348;SDS011;3207;42.648;23.406;2022-08-16T08:14:46;3.28;;;2.97;;
6348;SDS011;3207;42.648;23.406;2022-08-16T08:17:13;3.70;;;2.30;;
6348;SDS011;3207;42.648;23.406;2022-08-16T08:19:42;3.65;;;2.58;;
6348;SDS011;3207;42.648;23.406;2022-08-16T08:22:09;3.10;;;2.35;;
6348;SDS011;3207;42.648;23.406;2022-08-16T08:24:36;3.00;;;2.47;;
6348;SDS011;3207;42.648;23.406;2022-08-16T08:27:04;2.42;;;2.20;;
6348;SDS011;3207;42.648;23.406;2022-08-16T08:29:33;2.85;;;2.63;;
6348;SDS011;3207;42.648;23.406;2022-08-16T08:32:01;2.55;;;2.22;;
6348;SDS011;3207;42.648;23.406;2022-08-16T08:34:29;3.00;;;2.45;;
6348;SDS011;3207;42.648;23.406;2022-08-16T08:36:57;2.60;;;2.40;;
6348;SDS011;3207;42.648;23.406;2022-08-16T08:39:24;3.17;;;2.38;;
6348;SDS011;3207;42.648;23.406;2022-08-16T08:41:51;2.63;;;2.42;;
6348;SDS011;3207;42.648;23.406;2022-08-16T08:44:17;2.13;;;1.98;;
6348;SDS011;3207;42.648;23.406;2022-08-16T08:46:45;1.90;;;1.80;;
6348;SDS011;3207;42.648;23.406;2022-08-16T08:49:12;1.98;;;1.55;;
6348;SDS011;3207;42.648;23.406;2022-08-16T08:51:39;1.90;;;1.70;;
6348;SDS011;3207;42.648;23.406;2022-08-16T08:54:07;2.10;;;1.88;;
6348;SDS011;3207;42.648;23.406;2022-08-16T08:56:34;1.67;;;1.58;;
6348;SDS011;3207;42.648;23.406;2022-08-16T08:59:03;2.22;;;1.80;;
6348;SDS011;3207;42.648;23.406;2022-08-16T09:01:33;1.88;;;1.77;;
6348;SDS011;3207;42.648;23.406;2022-08-16T09:04:02;9.48;;;1.77;;
6348;SDS011;3207;42.648;23.406;2022-08-16T09:06:30;3.60;;;2.13;;
6348;SDS011;3207;42.648;23.406;2022-08-16T09:08:57;3.08;;;2.30;;
6348;SDS011;3207;42.648;23.406;2022-08-16T09:11:25;4.35;;;2.63;;
6348;SDS011;3207;42.648;23.406;2022-08-16T09:13:53;2.60;;;2.40;;
6348;SDS011;3207;42.648;23.406;2022-08-16T09:16:20;4.05;;;2.38;;
6348;SDS011;3207;42.648;23.406;2022-08-16T09:18:46;2.50;;;2.30;;
6348;SDS011;3207;42.648;23.406;2022-08-16T09:21:13;4.20;;;2.63;;
6348;SDS011;3207;42.648;23.406;2022-08-16T09:23:41;2.58;;;2.38;;
6348;SDS011;3207;42.648;23.406;2022-08-16T09:26:08;2.75;;;2.45;;
6348;SDS011;3207;42.648;23.406;2022-08-16T09:28:38;2.25;;;2.10;;
6348;SDS011;3207;42.648;23.406;2022-08-16T09:31:05;2.20;;;2.10;;
6348;SDS011;3207;42.648;23.406;2022-08-16T09:33:31;2.40;;;2.20;;
6348;SDS011;3207;42.648;23.406;2022-08-16T09:35:58;4.60;;;2.15;;
6348;SDS011;3207;42.648;23.406;2022-08-16T09:38:25;4.25;;;2.00;;
6348;SDS011;3207;42.648;23.406;2022-08-16T09:40:51;2.30;;;2.20;;
6348;SDS011;3207;42.648;23.406;2022-08-16T09:43:22;3.28;;;2.40;;
6348;SDS011;3207;42.648;23.406;2022-08-16T09:45:51;2.20;;;2.08;;
6348;SDS011;3207;42.648;23.406;2022-08-16T09:48:17;2.45;;;2.25;;
6348;SDS011;3207;42.648;23.406;2022-08-16T09:50:45;2.00;;;1.90;;
6348;SDS011;3207;42.648;23.406;2022-08-16T09:53:12;2.55;;;2.45;;
6348;SDS011;3207;42.648;23.406;2022-08-16T09:55:41;2.38;;;2.15;;
6348;SDS011;3207;42.648;23.406;2022-08-16T09:58:11;2.97;;;2.08;;
6348;SDS011;3207;42.648;23.406;2022-08-16T10:00:37;2.42;;;2.22;;
6348;SDS011;3207;42.648;23.406;2022-08-16T10:03:06;2.67;;;2.20;;
6348;SDS011;3207;42.648;23.406;2022-08-16T10:05:33;2.80;;;2.60;;
6348;SDS011;3207;42.648;23.406;2022-08-16T10:08:02;2.63;;;2.42;;
6348;SDS011;3207;42.648;23.406;2022-08-16T10:10:29;2.47;;;1.73;;
6348;SDS011;3207;42.648;23.406;2022-08-16T10:12:56;2.50;;;2.08;;
6348;SDS011;3207;42.648;23.406;2022-08-16T10:15:38;2.42;;;2.03;;
6348;SDS011;3207;42.648;23.406;2022-08-16T10:18:08;4.63;;;2.25;;
6348;SDS011;3207;42.648;23.406;2022-08-16T10:20:38;2.20;;;2.00;;
6348;SDS011;3207;42.648;23.406;2022-08-16T10:23:08;3.63;;;2.47;;
6348;SDS011;3207;42.648;23.406;2022-08-16T10:25:38;3.33;;;2.35;;
6348;SDS011;3207;42.648;23.406;2022-08-16T10:28:06;2.20;;;1.92;;
6348;SDS011;3207;42.648;23.406;2022-08-16T10:30:34;2.33;;;2.13;;
6348;SDS011;3207;42.648;23.406;2022-08-16T10:33:01;3.40;;;1.90;;
6348;SDS011;3207;42.648;23.406;2022-08-16T10:35:29;5.68;;;2.38;;
6348;SDS011;3207;42.648;23.406;2022-08-16T10:37:56;3.72;;;2.53;;
6348;SDS011;3207;42.648;23.406;2022-08-16T10:40:23;1.95;;;1.80;;
6348;SDS011;3207;42.648;23.406;2022-08-16T10:42:50;2.05;;;1.88;;
6348;SDS011;3207;42.648;23.406;2022-08-16T10:45:17;2.78;;;2.00;;
6348;SDS011;3207;42.648;23.406;2022-08-16T10:47:44;2.88;;;2.15;;
6348;SDS011;3207;42.648;23.406;2022-08-16T10:50:11;3.08;;;2.30;;
6348;SDS011;3207;42.648;23.406;2022-08-16T10:52:40;3.45;;;2.20;;
6348;SDS011;3207;42.648;23.406;2022-08-16T10:55:07;2.33;;;2.20;;
6348;SDS011;3207;42.648;23.406;2022-08-16T10:57:36;2.63;;;2.40;;
6348;SDS011;3207;42.648;23.406;2022-08-16T11:00:04;3.30;;;2.80;;
6348;SDS011;3207;42.648;23.406;2022-08-16T11:02:34;5.45;;;2.50;;
6348;SDS011;3207;42.648;23.406;2022-08-16T11:05:02;2.78;;;2.58;;
6348;SDS011;3207;42.648;23.406;2022-08-16T11:07:37;2.83;;;2.38;;
6348;SDS011;3207;42.648;23.406;2022-08-16T11:10:07;2.47;;;2.28;;
6348;SDS011;3207;42.648;23.406;2022-08-16T11:12:34;3.42;;;2.35;;
6348;SDS011;3207;42.648;23.406;2022-08-16T11:15:01;4.88;;;2.40;;
6348;SDS011;3207;42.648;23.406;2022-08-16T11:17:28;5.10;;;2.42;;
6348;SDS011;3207;42.648;23.406;2022-08-16T11:19:55;3.20;;;2.03;;
6348;SDS011;3207;42.648;23.406;2022-08-16T11:22:22;7.90;;;3.72;;
6348;SDS011;3207;42.648;23.406;2022-08-16T11:24:50;3.90;;;2.38;;
6348;SDS011;3207;42.648;23.406;2022-08-16T11:27:19;4.20;;;3.30;;
6348;SDS011;3207;42.648;23.406;2022-08-16T11:29:47;5.07;;;2.95;;
6348;SDS011;3207;42.648;23.406;2022-08-16T11:32:16;4.22;;;3.35;;
6348;SDS011;3207;42.648;23.406;2022-08-16T11:34:42;5.88;;;2.70;;
6348;SDS011;3207;42.648;23.406;2022-08-16T11:37:09;7.22;;;2.60;;
6348;SDS011;3207;42.648;23.406;2022-08-16T11:39:36;4.90;;;2.90;;
6348;SDS011;3207;42.648;23.406;2022-08-16T11:42:03;4.45;;;2.55;;
6348;SDS011;3207;42.648;23.406;2022-08-16T11:44:31;3.47;;;2.20;;
6348;SDS011;3207;42.648;23.406;2022-08-16T11:46:58;3.15;;;2.45;;
6348;SDS011;3207;42.648;23.406;2022-08-16T11:49:25;2.95;;;2.72;;
6348;SDS011;3207;42.648;23.406;2022-08-16T11:51:51;3.88;;;2.80;;
6348;SDS011;3207;42.648;23.406;2022-08-16T11:54:18;2.75;;;2.55;;
6348;SDS011;3207;42.648;23.406;2022-08-16T11:56:46;4.38;;;2.38;;
6348;SDS011;3207;42.648;23.406;2022-08-16T11:59:12;4.43;;;2.70;;
6348;SDS011;3207;42.648;23.406;2022-08-16T12:01:40;2.80;;;2.45;;
6348;SDS011;3207;42.648;23.406;2022-08-16T12:04:07;2.92;;;2.45;;
6348;SDS011;3207;42.648;23.406;2022-08-16T12:06:35;2.80;;;2.40;;
6348;SDS011;3207;42.648;23.406;2022-08-16T12:09:02;5.68;;;2.47;;
6348;SDS011;3207;42.648;23.406;2022-08-16T12:11:30;2.90;;;2.65;;
6348;SDS011;3207;42.648;23.406;2022-08-16T12:13:58;6.78;;;3.05;;
6348;SDS011;3207;42.648;23.406;2022-08-16T12:16:25;3.55;;;2.67;;
6348;SDS011;3207;42.648;23.406;2022-08-16T12:18:53;2.60;;;2.40;;
6348;SDS011;3207;42.648;23.406;2022-08-16T12:21:19;3.35;;;3.05;;
6348;SDS011;3207;42.648;23.406;2022-08-16T12:23:46;3.05;;;2.15;;
6348;SDS011;3207;42.648;23.406;2022-08-16T12:26:13;2.70;;;2.22;;
6348;SDS011;3207;42.648;23.406;2022-08-16T12:28:41;10.80;;;2.58;;
6348;SDS011;3207;42.648;23.406;2022-08-16T12:31:09;6.80;;;2.45;;
6348;SDS011;3207;42.648;23.406;2022-08-16T12:33:36;5.60;;;2.80;;
6348;SDS011;3207;42.648;23.406;2022-08-16T12:36:09;2.53;;;2.15;;
6348;SDS011;3207;42.648;23.406;2022-08-16T12:38:36;5.13;;;2.38;;
6348;SDS011;3207;42.648;23.406;2022-08-16T12:41:03;6.05;;;2.15;;
6348;SDS011;3207;42.648;23.406;2022-08-16T12:43:30;3.53;;;2.08;;
6348;SDS011;3207;42.648;23.406;2022-08-16T12:45:57;3.05;;;1.83;;
6348;SDS011;3207;42.648;23.406;2022-08-16T12:48:26;4.55;;;2.35;;
6348;SDS011;3207;42.648;23.406;2022-08-16T12:51:15;4.32;;;2.80;;
6348;SDS011;3207;42.648;23.406;2022-08-16T12:53:43;8.15;;;2.70;;
6348;SDS011;3207;42.648;23.406;2022-08-16T12:56:10;2.75;;;2.10;;
6348;SDS011;3207;42.648;23.406;2022-08-16T12:58:38;3.70;;;2.35;;
6348;SDS011;3207;42.648;23.406;2022-08-16T13:01:07;2.55;;;2.35;;
6348;SDS011;3207;42.648;23.406;2022-08-16T13:03:34;3.97;;;1.85;;
6348;SDS011;3207;42.648;23.406;2022-08-16T13:06:05;4.18;;;2.40;;
6348;SDS011;3207;42.648;23.406;2022-08-16T13:08:33;4.25;;;2.90;;
6348;SDS011;3207;42.648;23.406;2022-08-16T13:11:00;3.63;;;2.53;;
6348;SDS011;3207;42.648;23.406;2022-08-16T13:13:28;3.95;;;2.53;;
6348;SDS011;3207;42.648;23.406;2022-08-16T13:15:58;3.40;;;2.80;;
6348;SDS011;3207;42.648;23.406;2022-08-16T13:18:27;7.10;;;2.72;;
6348;SDS011;3207;42.648;23.406;2022-08-16T13:20:55;2.63;;;2.42;;
6348;SDS011;3207;42.648;23.406;2022-08-16T13:23:22;3.25;;;2.95;;
6348;SDS011;3207;42.648;23.406;2022-08-16T13:25:50;3.03;;;2.72;;
6348;SDS011;3207;42.648;23.406;2022-08-16T13:28:17;3.72;;;3.05;;
6348;SDS011;3207;42.648;23.406;2022-08-16T13:30:45;3.38;;;2.30;;
6348;SDS011;3207;42.648;23.406;2022-08-16T13:33:14;2.92;;;2.72;;
6348;SDS011;3207;42.648;23.406;2022-08-16T13:35:43;3.55;;;2.80;;
6348;SDS011;3207;42.648;23.406;2022-08-16T13:38:12;2.95;;;2.70;;
6348;SDS011;3207;42.648;23.406;2022-08-16T13:40:39;6.45;;;3.63;;
6348;SDS011;3207;42.648;23.406;2022-08-16T13:43:07;5.68;;;2.80;;
6348;SDS011;3207;42.648;23.406;2022-08-16T13:45:34;2.97;;;2.78;;
6348;SDS011;3207;42.648;23.406;2022-08-16T13:48:04;2.60;;;2.40;;
6348;SDS011;3207;42.648;23.406;2022-08-16T13:50:31;3.22;;;2.67;;
6348;SDS011;3207;42.648;23.406;2022-08-16T13:52:59;3.38;;;3.08;;
6348;SDS011;3207;42.648;23.406;2022-08-16T13:55:26;6.05;;;3.10;;
6348;SDS011;3207;42.648;23.406;2022-08-16T13:57:53;3.22;;;2.90;;
6348;SDS011;3207;42.648;23.406;2022-08-16T14:00:21;4.57;;;3.05;;
6348;SDS011;3207;42.648;23.406;2022-08-16T14:02:48;3.40;;;3.20;;
6348;SDS011;3207;42.648;23.406;2022-08-16T14:05:15;6.13;;;3.58;;
6348;SDS011;3207;42.648;23.406;2022-08-16T14:07:42;4.28;;;3.13;;
6348;SDS011;3207;42.648;23.406;2022-08-16T14:10:09;3.55;;;3.25;;
6348;SDS011;3207;42.648;23.406;2022-08-16T14:12:38;4.85;;;3.30;;
6348;SDS011;3207;42.648;23.406;2022-08-16T14:15:06;4.65;;;3.17;;
6348;SDS011;3207;42.648;23.406;2022-08-16T14:17:35;4.20;;;3.63;;
6348;SDS011;3207;42.648;23.406;2022-08-16T14:20:02;5.40;;;3.35;;
6348;SDS011;3207;42.648;23.406;2022-08-16T14:22:30;7.82;;;3.33;;
6348;SDS011;3207;42.648;23.406;2022-08-16T14:24:58;5.45;;;3.60;;
6348;SDS011;3207;42.648;23.406;2022-08-16T14:27:26;5.50;;;3.83;;
6348;SDS011;3207;42.648;23.406;2022-08-16T14:29:55;5.45;;;3.40;;
6348;SDS011;3207;42.648;23.406;2022-08-16T14:32:23;3.80;;;3.50;;
6348;SDS011;3207;42.648;23.406;2022-08-16T14:34:54;4.43;;;3.25;;
6348;SDS011;3207;42.648;23.406;2022-08-16T14:37:23;3.20;;;2.90;;
6348;SDS011;3207;42.648;23.406;2022-08-16T14:39:50;3.88;;;3.45;;
6348;SDS011;3207;42.648;23.406;2022-08-16T14:42:18;3.35;;;3.05;;
6348;SDS011;3207;42.648;23.406;2022-08-16T14:44:46;3.40;;;3.10;;
6348;SDS011;3207;42.648;23.406;2022-08-16T14:47:13;5.95;;;3.00;;
6348;SDS011;3207;42.648;23.406;2022-08-16T14:49:41;4.95;;;3.17;;
6348;SDS011;3207;42.648;23.406;2022-08-16T14:52:10;3.75;;;2.65;;
6348;SDS011;3207;42.648;23.406;2022-08-16T14:54:40;4.93;;;2.70;;
6348;SDS011;3207;42.648;23.406;2022-08-16T14:57:09;2.80;;;1.88;;
6348;SDS011;3207;42.648;23.406;2022-08-16T14:59:36;3.05;;;2.30;;
6348;SDS011;3207;42.648;23.406;2022-08-16T15:02:03;5.78;;;2.25;;
6348;SDS011;3207;42.648;23.406;2022-08-16T15:04:35;4.10;;;2.13;;